Sumter, SC

6:01 AM EDT on September 15, 2014 (GMT -0400)
Williamsburg County | Change Station
CLOSE
Current Station
Airport
Location: Kingstree,
Elevation: 66 ft
Nearby Weather Stations

Elev 66 ft 33.72 °N, 79.86 °W | Updated 6 minutes ago

Fog
Fog
70 °F
Feels Like 70 °F
N
0
Wind Variable Wind from North

Today
High -- | Low -- °F
--% Chance of Precip.
Yesterday
High -- | Low -- °F
Precip. -- in
7:04 AM 7:27 PM
Waning Gibbous, 57% visible
Pressure 30.18 in
Visibility 5.0 miles
Clouds Mostly Cloudy 500 ft
Overcast 1700 ft
Dew Point 70 °F
Humidity 100%
Rainfall 0.15 in
Snow Depth Not available.
UV 0 out of 12
Pollen 6.10 out of 12
Ozone Good
Flu Activity Not available.
METAR KCKI 150955Z AUTO 00000KT 5SM DZ BKN005 OVC017 21/21 A3018 RMK AO2

More Conditions Fewer Conditions

Pressure 30.18 in
Visibility 5.0 miles
Clouds Mostly Cloudy 500 ft
Overcast 1700 ft
Dew Point 70 °F
Humidity 100%
Rainfall 0.15 in
Snow Depth Not available.
UV 0 out of 12
Pollen 6.10 out of 12
Ozone Good
Flu Activity Not available.
METAR KCKI 150955Z AUTO 00000KT 5SM DZ BKN005 OVC017 21/21 A3018 RMK AO2

More Conditions Fewer Conditions

10-Day Weather Forecast

Almanac

Astronomy

Sep. 15, 2014 Rise Set
Actual Time 7:04 AM EDT 7:27 PM EDT
Civil Twilight 6:39 AM EDT 7:52 PM EDT
Nautical Twilight 6:09 AM EDT 8:21 PM EDT
Astronomical Twilight 5:40 AM EDT 8:51 PM EDT
Moon No Moon Rise 1:46 PM EDT
Length of Visible Light 13h 13m
Length of Day
12h 23m
Tomorrow will be 2m 5s shorter.
Waning Gibbous, 57% of the Moon is Illuminated
Today
Waning Gibbous
Sep 15
Last Quarter
Sep 24
New
Oct 1
First Quarter
Oct 8
Full

Today's Extremes

State Highs State Lows

Community

WunderPhotos

Upload Photos

1,753,428 photos uploaded!

WunderBlogs® & News

Nearby

Air Quality

  Air Quality AQ Index Pollutant
Yesterday Good
OZONE
Current Good
OZONE
Monday Good
OZONE

Snow Depth

Station Depth Elevation
No new snow has been reported.

Earthquake Activity

City Distance Mag. Time & Date
No recent earthquake activity has been reported nearby.
Minimum magnitude displayed is 2.5.

Coastal Water Temperatures

Place Temperature
No Stations Reporting

Nearby Weather Stations